Gallatin Field
KBZN : now visible

Airfield :











YOU CAN JOIN US ON...

 
LOGIN :

Register | Disclaimer

   EN    FR    IT 

 









Legend :    VFR   Marginal VFR   IFR   Intensive IFR   Very Intensive IFR
Visi :
Ceiling :
>= 8 km
>= 3000ft
5 to 8 km
1000 to 3000 ft
1500m to 5 km
500 to 1000 ft
800 to 1500m
200 to 500 ft
< 800m
< 200 ft
Symbols :   Thunderstorms  Fog  Heavy snow  Heavy precipitations  Wind > 20 kt






- Airport Elevation : 4473 ft
- IATA code : BZN


KBZN - Gallatin Field

CURRENT METAR :
  • 192356Z 24003KT 10SM CLR 06/M11 A3027 RMK AO2 SLP275 T00561106 10067 20011 56010

EXPIRED METARs :
  • 192256Z 04004KT 10SM BKN065 05/M10 A3027 RMK AO2 SLP277 T00501100
  • 192156Z 36005KT 10SM OVC060 05/M09 A3029 RMK AO2 SLP282 T00501094
  • 192056Z 00000KT 10SM BKN055 06/M09 A3030 RMK AO2 SLP284 T00561089 56015
  • 191956Z VRB04KT 10SM OVC055 04/M09 A3032 RMK AO2 SLP294 T00391094

TAF KBZN
Valid from the 20 at 00:00 until the 21 at 06:00 UTC


192321Z 2000/2106 05007KT P6SM BKN070
FM200200 10011G19KT P6SM FEW100
FM201800 VRB04KT P6SM FEW180
FM210300 11010KT P6SM SKC
KZLC FIR / North America



MET'MAP, your aeronautical weather chart ! - Copyright ORBIFLY December 2007 - Disclaimer

ORBIFLY MET'MAP TEAM :

Programming & Development : Alexandra Zaïnal
Original concept : Baudouin d'Aumeries
Technical & hardware support : Manuel Goepfert
Assistance : Marc-Olivier Méhu




SOURCES & CREDITS :

   NOAA       Earth
Advisory